sensor_id;sensor_type;location;lat;lon;timestamp;temperature;humidity
2897;DHT22;1458;49.728;9.228;2023-03-14T00:00:06;10.40;99.90
2897;DHT22;1458;49.728;9.228;2023-03-14T00:02:38;10.50;99.90
2897;DHT22;1458;49.728;9.228;2023-03-14T00:05:06;10.40;99.90
2897;DHT22;1458;49.728;9.228;2023-03-14T00:07:35;10.40;99.90
2897;DHT22;1458;49.728;9.228;2023-03-14T00:10:04;10.50;99.90
2897;DHT22;1458;49.728;9.228;2023-03-14T00:12:33;10.50;99.90
2897;DHT22;1458;49.728;9.228;2023-03-14T00:15:00;10.40;99.90
2897;DHT22;1458;49.728;9.228;2023-03-14T00:17:29;10.40;99.90
2897;DHT22;1458;49.728;9.228;2023-03-14T00:19:58;10.40;99.90
2897;DHT22;1458;49.728;9.228;2023-03-14T00:22:30;10.50;99.90
2897;DHT22;1458;49.728;9.228;2023-03-14T00:24:57;10.50;99.90
2897;DHT22;1458;49.728;9.228;2023-03-14T00:27:25;10.40;99.90
2897;DHT22;1458;49.728;9.228;2023-03-14T00:29:52;10.30;99.90
2897;DHT22;1458;49.728;9.228;2023-03-14T00:32:20;10.40;99.90
2897;DHT22;1458;49.728;9.228;2023-03-14T00:34:47;10.40;99.90
2897;DHT22;1458;49.728;9.228;2023-03-14T00:37:16;10.30;99.90
2897;DHT22;1458;49.728;9.228;2023-03-14T00:39:43;10.30;99.90
2897;DHT22;1458;49.728;9.228;2023-03-14T00:42:11;10.30;99.90
2897;DHT22;1458;49.728;9.228;2023-03-14T00:44:38;10.40;99.90
2897;DHT22;1458;49.728;9.228;2023-03-14T00:47:06;10.40;99.90
2897;DHT22;1458;49.728;9.228;2023-03-14T00:49:34;10.50;99.90
2897;DHT22;1458;49.728;9.228;2023-03-14T00:52:01;10.40;99.90
2897;DHT22;1458;49.728;9.228;2023-03-14T00:54:30;10.40;99.90
2897;DHT22;1458;49.728;9.228;2023-03-14T00:56:58;10.40;99.90
2897;DHT22;1458;49.728;9.228;2023-03-14T00:59:26;10.30;99.90
2897;DHT22;1458;49.728;9.228;2023-03-14T01:01:54;10.40;99.90
2897;DHT22;1458;49.728;9.228;2023-03-14T01:04:21;10.60;99.90
2897;DHT22;1458;49.728;9.228;2023-03-14T01:06:49;10.50;99.90
2897;DHT22;1458;49.728;9.228;2023-03-14T01:09:16;10.70;99.90
2897;DHT22;1458;49.728;9.228;2023-03-14T01:11:45;10.70;99.90
2897;DHT22;1458;49.728;9.228;2023-03-14T01:14:14;10.60;99.90
2897;DHT22;1458;49.728;9.228;2023-03-14T01:16:42;10.70;99.90
2897;DHT22;1458;49.728;9.228;2023-03-14T01:19:09;10.80;99.90
2897;DHT22;1458;49.728;9.228;2023-03-14T01:21:37;10.80;99.90
2897;DHT22;1458;49.728;9.228;2023-03-14T01:24:05;10.80;99.90
2897;DHT22;1458;49.728;9.228;2023-03-14T01:26:34;10.80;99.90
2897;DHT22;1458;49.728;9.228;2023-03-14T01:29:05;10.80;99.90
2897;DHT22;1458;49.728;9.228;2023-03-14T01:31:35;10.70;99.90
2897;DHT22;1458;49.728;9.228;2023-03-14T01:34:03;10.70;99.90
2897;DHT22;1458;49.728;9.228;2023-03-14T01:36:30;10.70;99.90
2897;DHT22;1458;49.728;9.228;2023-03-14T01:39:00;10.60;99.90
2897;DHT22;1458;49.728;9.228;2023-03-14T01:41:27;10.50;99.90
2897;DHT22;1458;49.728;9.228;2023-03-14T01:43:57;10.50;99.90
2897;DHT22;1458;49.728;9.228;2023-03-14T01:46:42;10.50;99.90
2897;DHT22;1458;49.728;9.228;2023-03-14T01:49:21;10.50;99.90
2897;DHT22;1458;49.728;9.228;2023-03-14T01:51:59;10.50;99.90
2897;DHT22;1458;49.728;9.228;2023-03-14T01:54:32;10.60;99.90
2897;DHT22;1458;49.728;9.228;2023-03-14T01:57:07;10.50;99.90
2897;DHT22;1458;49.728;9.228;2023-03-14T01:59:37;10.50;99.90
2897;DHT22;1458;49.728;9.228;2023-03-14T02:02:07;10.50;99.90
2897;DHT22;1458;49.728;9.228;2023-03-14T02:04:38;10.60;99.90
2897;DHT22;1458;49.728;9.228;2023-03-14T02:07:12;10.50;99.90
2897;DHT22;1458;49.728;9.228;2023-03-14T02:09:51;10.50;99.90
2897;DHT22;1458;49.728;9.228;2023-03-14T02:12:24;10.70;99.90
2897;DHT22;1458;49.728;9.228;2023-03-14T02:15:08;10.60;99.90
2897;DHT22;1458;49.728;9.228;2023-03-14T02:17:53;10.60;99.90
2897;DHT22;1458;49.728;9.228;2023-03-14T02:20:32;10.60;99.90
2897;DHT22;1458;49.728;9.228;2023-03-14T02:23:01;10.60;99.90
2897;DHT22;1458;49.728;9.228;2023-03-14T02:25:36;10.70;99.90
2897;DHT22;1458;49.728;9.228;2023-03-14T02:28:08;10.70;99.90
2897;DHT22;1458;49.728;9.228;2023-03-14T02:30:37;10.60;99.90
2897;DHT22;1458;49.728;9.228;2023-03-14T02:33:07;10.60;99.90
2897;DHT22;1458;49.728;9.228;2023-03-14T02:35:39;10.60;99.90
2897;DHT22;1458;49.728;9.228;2023-03-14T02:38:15;10.70;99.90
2897;DHT22;1458;49.728;9.228;2023-03-14T02:40:45;10.60;99.90
2897;DHT22;1458;49.728;9.228;2023-03-14T02:43:14;10.60;99.90
2897;DHT22;1458;49.728;9.228;2023-03-14T02:45:49;10.70;99.90
2897;DHT22;1458;49.728;9.228;2023-03-14T02:48:22;10.80;99.90
2897;DHT22;1458;49.728;9.228;2023-03-14T02:50:53;10.80;99.90
2897;DHT22;1458;49.728;9.228;2023-03-14T02:53:25;10.80;99.90
2897;DHT22;1458;49.728;9.228;2023-03-14T02:55:57;10.80;99.90
2897;DHT22;1458;49.728;9.228;2023-03-14T02:58:28;10.80;99.90
2897;DHT22;1458;49.728;9.228;2023-03-14T03:01:12;10.80;99.90
2897;DHT22;1458;49.728;9.228;2023-03-14T03:03:39;10.60;99.90
2897;DHT22;1458;49.728;9.228;2023-03-14T03:06:07;10.60;99.90
2897;DHT22;1458;49.728;9.228;2023-03-14T03:08:34;10.60;99.90
2897;DHT22;1458;49.728;9.228;2023-03-14T03:11:02;10.70;99.90
2897;DHT22;1458;49.728;9.228;2023-03-14T03:13:33;10.80;99.90
2897;DHT22;1458;49.728;9.228;2023-03-14T03:16:03;10.80;99.90
2897;DHT22;1458;49.728;9.228;2023-03-14T03:18:33;10.80;99.90
2897;DHT22;1458;49.728;9.228;2023-03-14T03:21:01;10.80;99.90
2897;DHT22;1458;49.728;9.228;2023-03-14T03:23:29;10.90;99.90
2897;DHT22;1458;49.728;9.228;2023-03-14T03:25:57;10.80;99.90
2897;DHT22;1458;49.728;9.228;2023-03-14T03:28:24;10.80;99.90
2897;DHT22;1458;49.728;9.228;2023-03-14T03:30:54;10.80;99.90
2897;DHT22;1458;49.728;9.228;2023-03-14T03:33:21;11.00;99.90
2897;DHT22;1458;49.728;9.228;2023-03-14T03:35:51;10.80;99.90
2897;DHT22;1458;49.728;9.228;2023-03-14T03:38:24;10.90;99.90
2897;DHT22;1458;49.728;9.228;2023-03-14T03:40:53;10.80;99.90
2897;DHT22;1458;49.728;9.228;2023-03-14T03:43:24;10.80;99.90
2897;DHT22;1458;49.728;9.228;2023-03-14T03:45:51;10.90;99.90
2897;DHT22;1458;49.728;9.228;2023-03-14T03:48:23;10.90;99.90
2897;DHT22;1458;49.728;9.228;2023-03-14T03:50:50;10.80;99.90
2897;DHT22;1458;49.728;9.228;2023-03-14T03:53:21;10.70;99.90
2897;DHT22;1458;49.728;9.228;2023-03-14T03:55:48;10.70;99.90
2897;DHT22;1458;49.728;9.228;2023-03-14T03:58:16;10.60;99.90
2897;DHT22;1458;49.728;9.228;2023-03-14T04:00:43;10.70;99.90
2897;DHT22;1458;49.728;9.228;2023-03-14T04:03:12;10.60;99.90
2897;DHT22;1458;49.728;9.228;2023-03-14T04:05:40;10.60;99.90
2897;DHT22;1458;49.728;9.228;2023-03-14T04:08:09;10.60;99.90
2897;DHT22;1458;49.728;9.228;2023-03-14T04:10:37;10.70;99.90
2897;DHT22;1458;49.728;9.228;2023-03-14T04:13:21;10.60;99.90
2897;DHT22;1458;49.728;9.228;2023-03-14T04:15:51;10.50;99.90
2897;DHT22;1458;49.728;9.228;2023-03-14T04:18:27;10.50;99.90
2897;DHT22;1458;49.728;9.228;2023-03-14T04:20:56;10.50;99.90
2897;DHT22;1458;49.728;9.228;2023-03-14T04:23:36;10.40;99.90
2897;DHT22;1458;49.728;9.228;2023-03-14T04:26:04;10.50;99.90
2897;DHT22;1458;49.728;9.228;2023-03-14T04:28:32;10.50;99.90
2897;DHT22;1458;49.728;9.228;2023-03-14T04:31:07;10.50;99.90
2897;DHT22;1458;49.728;9.228;2023-03-14T04:33:36;10.50;99.90
2897;DHT22;1458;49.728;9.228;2023-03-14T04:36:05;10.50;99.90
2897;DHT22;1458;49.728;9.228;2023-03-14T04:38:35;10.40;99.90
2897;DHT22;1458;49.728;9.228;2023-03-14T04:41:03;10.50;99.90
2897;DHT22;1458;49.728;9.228;2023-03-14T04:43:32;10.40;99.90
2897;DHT22;1458;49.728;9.228;2023-03-14T04:46:06;10.50;99.90
2897;DHT22;1458;49.728;9.228;2023-03-14T04:48:36;10.40;99.90
2897;DHT22;1458;49.728;9.228;2023-03-14T04:51:05;10.40;99.90
2897;DHT22;1458;49.728;9.228;2023-03-14T04:53:34;10.40;99.90
2897;DHT22;1458;49.728;9.228;2023-03-14T04:56:06;10.50;99.90
2897;DHT22;1458;49.728;9.228;2023-03-14T04:58:37;10.40;99.90
2897;DHT22;1458;49.728;9.228;2023-03-14T05:01:06;10.30;99.90
2897;DHT22;1458;49.728;9.228;2023-03-14T05:03:43;10.30;99.90
2897;DHT22;1458;49.728;9.228;2023-03-14T05:06:18;10.30;99.90
2897;DHT22;1458;49.728;9.228;2023-03-14T05:08:51;10.30;99.90
2897;DHT22;1458;49.728;9.228;2023-03-14T05:11:24;10.20;99.90
2897;DHT22;1458;49.728;9.228;2023-03-14T05:14:13;10.20;99.90
2897;DHT22;1458;49.728;9.228;2023-03-14T05:16:59;10.10;99.90
2897;DHT22;1458;49.728;9.228;2023-03-14T05:19:50;10.00;99.90
2897;DHT22;1458;49.728;9.228;2023-03-14T05:22:48;10.00;99.90
2897;DHT22;1458;49.728;9.228;2023-03-14T05:25:37;10.00;99.90
2897;DHT22;1458;49.728;9.228;2023-03-14T05:28:20;10.20;99.90
2897;DHT22;1458;49.728;9.228;2023-03-14T05:31:06;10.30;99.90
2897;DHT22;1458;49.728;9.228;2023-03-14T05:33:53;10.20;99.90
2897;DHT22;1458;49.728;9.228;2023-03-14T05:36:40;10.20;99.90
2897;DHT22;1458;49.728;9.228;2023-03-14T05:39:46;10.20;99.90
2897;DHT22;1458;49.728;9.228;2023-03-14T05:42:39;10.30;99.90
2897;DHT22;1458;49.728;9.228;2023-03-14T05:45:35;10.50;99.90
2897;DHT22;1458;49.728;9.228;2023-03-14T05:48:16;10.60;99.90
2897;DHT22;1458;49.728;9.228;2023-03-14T05:50:54;10.60;99.90
2897;DHT22;1458;49.728;9.228;2023-03-14T05:53:37;10.70;99.90
2897;DHT22;1458;49.728;9.228;2023-03-14T05:56:24;10.80;99.90
2897;DHT22;1458;49.728;9.228;2023-03-14T05:59:02;10.70;99.90
2897;DHT22;1458;49.728;9.228;2023-03-14T06:01:59;10.70;99.90
2897;DHT22;1458;49.728;9.228;2023-03-14T06:04:33;10.70;99.90
2897;DHT22;1458;49.728;9.228;2023-03-14T06:07:00;10.70;99.90
2897;DHT22;1458;49.728;9.228;2023-03-14T06:09:29;10.70;99.90
2897;DHT22;1458;49.728;9.228;2023-03-14T06:12:00;10.70;99.90
2897;DHT22;1458;49.728;9.228;2023-03-14T06:14:32;10.70;99.90
2897;DHT22;1458;49.728;9.228;2023-03-14T06:16:59;10.60;99.90
2897;DHT22;1458;49.728;9.228;2023-03-14T06:19:30;10.70;99.90
2897;DHT22;1458;49.728;9.228;2023-03-14T06:21:57;10.70;99.90
2897;DHT22;1458;49.728;9.228;2023-03-14T06:24:25;10.70;99.90
2897;DHT22;1458;49.728;9.228;2023-03-14T06:26:54;10.70;99.90
2897;DHT22;1458;49.728;9.228;2023-03-14T06:29:22;10.80;99.90
2897;DHT22;1458;49.728;9.228;2023-03-14T06:31:49;10.80;99.90
2897;DHT22;1458;49.728;9.228;2023-03-14T06:34:18;10.80;99.90
2897;DHT22;1458;49.728;9.228;2023-03-14T06:36:45;10.80;99.90
2897;DHT22;1458;49.728;9.228;2023-03-14T06:39:13;10.80;99.90
2897;DHT22;1458;49.728;9.228;2023-03-14T06:41:44;10.90;99.90
2897;DHT22;1458;49.728;9.228;2023-03-14T06:44:13;11.00;99.90
2897;DHT22;1458;49.728;9.228;2023-03-14T06:46:41;11.00;99.90
2897;DHT22;1458;49.728;9.228;2023-03-14T06:49:08;11.00;99.90
2897;DHT22;1458;49.728;9.228;2023-03-14T06:51:36;11.00;99.90
2897;DHT22;1458;49.728;9.228;2023-03-14T06:54:05;11.00;99.90
2897;DHT22;1458;49.728;9.228;2023-03-14T06:56:33;11.10;99.90
2897;DHT22;1458;49.728;9.228;2023-03-14T06:59:00;11.20;99.90
2897;DHT22;1458;49.728;9.228;2023-03-14T07:01:32;11.10;99.90
2897;DHT22;1458;49.728;9.228;2023-03-14T07:04:10;11.20;99.90
2897;DHT22;1458;49.728;9.228;2023-03-14T07:06:42;11.20;99.90
2897;DHT22;1458;49.728;9.228;2023-03-14T07:09:10;11.30;99.90
2897;DHT22;1458;49.728;9.228;2023-03-14T07:11:42;11.30;99.90
2897;DHT22;1458;49.728;9.228;2023-03-14T07:14:10;11.40;99.80
2897;DHT22;1458;49.728;9.228;2023-03-14T07:16:39;11.40;99.40
2897;DHT22;1458;49.728;9.228;2023-03-14T07:19:08;11.50;99.00
2897;DHT22;1458;49.728;9.228;2023-03-14T07:21:35;11.40;99.40
2897;DHT22;1458;49.728;9.228;2023-03-14T07:24:07;11.40;99.60
2897;DHT22;1458;49.728;9.228;2023-03-14T07:26:35;11.40;99.70
2897;DHT22;1458;49.728;9.228;2023-03-14T07:29:02;11.40;99.90
2897;DHT22;1458;49.728;9.228;2023-03-14T07:31:31;11.40;99.90
2897;DHT22;1458;49.728;9.228;2023-03-14T07:34:01;11.40;99.90
2897;DHT22;1458;49.728;9.228;2023-03-14T07:36:32;11.50;99.90
2897;DHT22;1458;49.728;9.228;2023-03-14T07:38:59;11.70;99.90
2897;DHT22;1458;49.728;9.228;2023-03-14T07:41:26;11.70;99.90
2897;DHT22;1458;49.728;9.228;2023-03-14T07:44:13;11.70;99.90
2897;DHT22;1458;49.728;9.228;2023-03-14T07:46:40;11.50;99.90
2897;DHT22;1458;49.728;9.228;2023-03-14T07:49:09;11.40;99.90
2897;DHT22;1458;49.728;9.228;2023-03-14T07:51:36;11.30;99.90
2897;DHT22;1458;49.728;9.228;2023-03-14T07:54:04;11.20;99.90
2897;DHT22;1458;49.728;9.228;2023-03-14T07:56:31;11.20;99.90
2897;DHT22;1458;49.728;9.228;2023-03-14T07:58:59;11.20;99.90
2897;DHT22;1458;49.728;9.228;2023-03-14T08:01:27;11.30;99.90
2897;DHT22;1458;49.728;9.228;2023-03-14T08:03:54;11.30;99.90
2897;DHT22;1458;49.728;9.228;2023-03-14T08:06:23;11.30;99.90
2897;DHT22;1458;49.728;9.228;2023-03-14T08:08:50;11.30;99.90
2897;DHT22;1458;49.728;9.228;2023-03-14T08:11:18;11.20;99.90
2897;DHT22;1458;49.728;9.228;2023-03-14T08:13:45;11.20;99.90
2897;DHT22;1458;49.728;9.228;2023-03-14T08:16:15;11.20;99.90
2897;DHT22;1458;49.728;9.228;2023-03-14T08:18:43;11.10;99.90
2897;DHT22;1458;49.728;9.228;2023-03-14T08:21:11;11.00;99.90
2897;DHT22;1458;49.728;9.228;2023-03-14T08:23:40;11.20;99.90
2897;DHT22;1458;49.728;9.228;2023-03-14T08:26:07;11.30;99.90
2897;DHT22;1458;49.728;9.228;2023-03-14T08:28:35;11.40;99.90
2897;DHT22;1458;49.728;9.228;2023-03-14T08:31:03;11.40;99.90
2897;DHT22;1458;49.728;9.228;2023-03-14T08:33:31;11.60;99.90
2897;DHT22;1458;49.728;9.228;2023-03-14T08:36:00;11.60;99.90
2897;DHT22;1458;49.728;9.228;2023-03-14T08:38:28;11.60;99.90
2897;DHT22;1458;49.728;9.228;2023-03-14T08:40:57;11.70;99.90
2897;DHT22;1458;49.728;9.228;2023-03-14T08:43:25;11.70;99.90
2897;DHT22;1458;49.728;9.228;2023-03-14T08:45:53;11.80;99.90
2897;DHT22;1458;49.728;9.228;2023-03-14T08:48:24;11.70;99.90
2897;DHT22;1458;49.728;9.228;2023-03-14T08:50:51;11.60;99.90
2897;DHT22;1458;49.728;9.228;2023-03-14T08:53:19;11.70;99.90
2897;DHT22;1458;49.728;9.228;2023-03-14T08:55:51;11.70;99.90
2897;DHT22;1458;49.728;9.228;2023-03-14T08:58:21;11.80;99.90
2897;DHT22;1458;49.728;9.228;2023-03-14T09:00:49;11.90;99.90
2897;DHT22;1458;49.728;9.228;2023-03-14T09:03:17;11.80;99.90
2897;DHT22;1458;49.728;9.228;2023-03-14T09:05:44;11.80;99.90
2897;DHT22;1458;49.728;9.228;2023-03-14T09:08:11;11.70;99.90
2897;DHT22;1458;49.728;9.228;2023-03-14T09:10:39;11.60;99.90
2897;DHT22;1458;49.728;9.228;2023-03-14T09:13:06;11.60;99.90
2897;DHT22;1458;49.728;9.228;2023-03-14T09:15:35;11.70;99.90
2897;DHT22;1458;49.728;9.228;2023-03-14T09:18:02;11.80;99.90
2897;DHT22;1458;49.728;9.228;2023-03-14T09:20:30;11.70;99.90
2897;DHT22;1458;49.728;9.228;2023-03-14T09:22:57;11.60;99.90
2897;DHT22;1458;49.728;9.228;2023-03-14T09:25:25;11.50;99.90
2897;DHT22;1458;49.728;9.228;2023-03-14T09:27:52;11.50;99.90
2897;DHT22;1458;49.728;9.228;2023-03-14T09:30:20;11.70;99.90
2897;DHT22;1458;49.728;9.228;2023-03-14T09:32:48;11.90;99.90
2897;DHT22;1458;49.728;9.228;2023-03-14T09:35:16;11.80;99.90
2897;DHT22;1458;49.728;9.228;2023-03-14T09:37:44;11.80;99.90
2897;DHT22;1458;49.728;9.228;2023-03-14T09:40:13;11.80;99.90
2897;DHT22;1458;49.728;9.228;2023-03-14T09:42:42;12.00;99.90
2897;DHT22;1458;49.728;9.228;2023-03-14T09:45:13;11.80;99.90
2897;DHT22;1458;49.728;9.228;2023-03-14T09:47:43;11.90;99.90
2897;DHT22;1458;49.728;9.228;2023-03-14T09:50:15;11.90;99.90
2897;DHT22;1458;49.728;9.228;2023-03-14T09:52:45;12.10;99.90
2897;DHT22;1458;49.728;9.228;2023-03-14T09:55:16;12.10;99.90
2897;DHT22;1458;49.728;9.228;2023-03-14T09:57:45;12.10;99.90
2897;DHT22;1458;49.728;9.228;2023-03-14T10:00:16;12.10;99.90
2897;DHT22;1458;49.728;9.228;2023-03-14T10:02:50;12.10;99.90
2897;DHT22;1458;49.728;9.228;2023-03-14T10:05:23;12.10;99.90
2897;DHT22;1458;49.728;9.228;2023-03-14T10:07:53;12.10;99.90
2897;DHT22;1458;49.728;9.228;2023-03-14T10:10:22;12.10;99.90
2897;DHT22;1458;49.728;9.228;2023-03-14T10:12:56;12.20;99.90
2897;DHT22;1458;49.728;9.228;2023-03-14T10:15:26;12.30;99.90
2897;DHT22;1458;49.728;9.228;2023-03-14T10:17:58;12.50;99.90
2897;DHT22;1458;49.728;9.228;2023-03-14T10:20:30;12.80;99.90
2897;DHT22;1458;49.728;9.228;2023-03-14T10:23:03;13.10;99.90
2897;DHT22;1458;49.728;9.228;2023-03-14T10:25:34;13.20;99.90
2897;DHT22;1458;49.728;9.228;2023-03-14T10:28:03;13.00;99.90
2897;DHT22;1458;49.728;9.228;2023-03-14T10:30:39;12.70;99.90
2897;DHT22;1458;49.728;9.228;2023-03-14T10:33:11;12.70;99.90
2897;DHT22;1458;49.728;9.228;2023-03-14T10:35:52;12.80;99.90
2897;DHT22;1458;49.728;9.228;2023-03-14T10:38:23;12.60;99.90
2897;DHT22;1458;49.728;9.228;2023-03-14T10:40:53;12.40;99.90
2897;DHT22;1458;49.728;9.228;2023-03-14T10:43:24;12.20;99.90
2897;DHT22;1458;49.728;9.228;2023-03-14T10:45:55;12.10;99.90
2897;DHT22;1458;49.728;9.228;2023-03-14T10:48:30;12.10;99.90
2897;DHT22;1458;49.728;9.228;2023-03-14T10:51:05;12.10;99.90
2897;DHT22;1458;49.728;9.228;2023-03-14T10:53:39;12.00;99.90
2897;DHT22;1458;49.728;9.228;2023-03-14T10:56:12;11.90;99.90
2897;DHT22;1458;49.728;9.228;2023-03-14T10:58:42;11.90;99.90
2897;DHT22;1458;49.728;9.228;2023-03-14T11:01:31;11.80;99.90
2897;DHT22;1458;49.728;9.228;2023-03-14T11:04:14;11.60;99.90
2897;DHT22;1458;49.728;9.228;2023-03-14T11:06:53;11.50;99.90
2897;DHT22;1458;49.728;9.228;2023-03-14T11:09:27;11.30;99.90
2897;DHT22;1458;49.728;9.228;2023-03-14T11:12:12;11.20;99.90
2897;DHT22;1458;49.728;9.228;2023-03-14T11:14:53;11.00;99.90
2897;DHT22;1458;49.728;9.228;2023-03-14T11:17:27;11.10;99.90
2897;DHT22;1458;49.728;9.228;2023-03-14T11:20:07;11.00;99.90
2897;DHT22;1458;49.728;9.228;2023-03-14T11:22:50;11.20;99.90
2897;DHT22;1458;49.728;9.228;2023-03-14T11:25:29;11.10;99.90
2897;DHT22;1458;49.728;9.228;2023-03-14T11:28:07;11.10;99.90
2897;DHT22;1458;49.728;9.228;2023-03-14T11:30:41;11.20;99.90
2897;DHT22;1458;49.728;9.228;2023-03-14T11:33:15;11.20;99.90
2897;DHT22;1458;49.728;9.228;2023-03-14T11:35:47;11.20;99.90
2897;DHT22;1458;49.728;9.228;2023-03-14T11:38:29;11.00;99.90
2897;DHT22;1458;49.728;9.228;2023-03-14T11:40:59;11.00;99.90
2897;DHT22;1458;49.728;9.228;2023-03-14T11:43:30;10.90;99.90
2897;DHT22;1458;49.728;9.228;2023-03-14T11:46:05;10.90;99.90
2897;DHT22;1458;49.728;9.228;2023-03-14T11:48:39;10.80;99.90
2897;DHT22;1458;49.728;9.228;2023-03-14T11:51:14;10.90;99.90
2897;DHT22;1458;49.728;9.228;2023-03-14T11:53:50;10.90;99.90
2897;DHT22;1458;49.728;9.228;2023-03-14T11:56:29;10.90;99.90
2897;DHT22;1458;49.728;9.228;2023-03-14T11:59:04;11.00;99.90
2897;DHT22;1458;49.728;9.228;2023-03-14T12:01:42;11.00;99.90
2897;DHT22;1458;49.728;9.228;2023-03-14T12:04:23;10.90;99.90
2897;DHT22;1458;49.728;9.228;2023-03-14T12:07:15;10.90;99.90
2897;DHT22;1458;49.728;9.228;2023-03-14T12:09:48;10.90;99.90
2897;DHT22;1458;49.728;9.228;2023-03-14T12:12:19;10.90;99.90
2897;DHT22;1458;49.728;9.228;2023-03-14T12:14:54;10.90;99.90
2897;DHT22;1458;49.728;9.228;2023-03-14T12:17:25;10.90;99.90
2897;DHT22;1458;49.728;9.228;2023-03-14T12:20:02;11.00;99.90
2897;DHT22;1458;49.728;9.228;2023-03-14T12:22:35;11.00;99.90
2897;DHT22;1458;49.728;9.228;2023-03-14T12:25:13;11.10;99.90
2897;DHT22;1458;49.728;9.228;2023-03-14T12:30:36;11.40;99.90
2897;DHT22;1458;49.728;9.228;2023-03-14T12:33:26;11.50;99.90
2897;DHT22;1458;49.728;9.228;2023-03-14T12:35:59;11.50;99.90
2897;DHT22;1458;49.728;9.228;2023-03-14T12:38:55;11.70;99.90
2897;DHT22;1458;49.728;9.228;2023-03-14T12:41:34;11.60;99.90
2897;DHT22;1458;49.728;9.228;2023-03-14T12:47:43;11.20;99.90
2897;DHT22;1458;49.728;9.228;2023-03-14T12:50:26;11.00;99.90
2897;DHT22;1458;49.728;9.228;2023-03-14T12:53:20;10.80;99.90
2897;DHT22;1458;49.728;9.228;2023-03-14T12:59:23;10.40;99.90
2897;DHT22;1458;49.728;9.228;2023-03-14T13:02:14;10.20;99.90
2897;DHT22;1458;49.728;9.228;2023-03-14T13:04:49;10.10;99.90
2897;DHT22;1458;49.728;9.228;2023-03-14T13:07:35;10.20;99.90
2897;DHT22;1458;49.728;9.228;2023-03-14T13:10:20;10.20;99.90
2897;DHT22;1458;49.728;9.228;2023-03-14T13:12:51;9.90;99.90
2897;DHT22;1458;49.728;9.228;2023-03-14T13:15:28;9.80;99.90
2897;DHT22;1458;49.728;9.228;2023-03-14T13:18:01;9.70;99.90
2897;DHT22;1458;49.728;9.228;2023-03-14T13:20:32;9.60;99.90
2897;DHT22;1458;49.728;9.228;2023-03-14T13:23:02;9.50;99.90
2897;DHT22;1458;49.728;9.228;2023-03-14T13:25:32;9.40;99.90
2897;DHT22;1458;49.728;9.228;2023-03-14T13:28:03;9.30;99.90
2897;DHT22;1458;49.728;9.228;2023-03-14T13:30:39;9.40;99.90
2897;DHT22;1458;49.728;9.228;2023-03-14T13:33:12;9.30;99.90
2897;DHT22;1458;49.728;9.228;2023-03-14T13:35:43;9.20;99.90
2897;DHT22;1458;49.728;9.228;2023-03-14T13:38:18;9.20;99.90
2897;DHT22;1458;49.728;9.228;2023-03-14T13:40:48;9.20;99.90
2897;DHT22;1458;49.728;9.228;2023-03-14T13:43:26;9.30;99.90
2897;DHT22;1458;49.728;9.228;2023-03-14T13:46:02;9.40;99.90
2897;DHT22;1458;49.728;9.228;2023-03-14T13:48:32;9.50;99.90
2897;DHT22;1458;49.728;9.228;2023-03-14T13:51:04;9.70;99.90
2897;DHT22;1458;49.728;9.228;2023-03-14T13:53:34;9.80;99.90
2897;DHT22;1458;49.728;9.228;2023-03-14T13:56:10;9.80;99.90
2897;DHT22;1458;49.728;9.228;2023-03-14T13:58:40;9.70;99.90
2897;DHT22;1458;49.728;9.228;2023-03-14T14:01:13;9.40;99.90
2897;DHT22;1458;49.728;9.228;2023-03-14T14:03:45;9.20;99.90
2897;DHT22;1458;49.728;9.228;2023-03-14T14:06:26;9.20;99.90
2897;DHT22;1458;49.728;9.228;2023-03-14T14:08:56;9.30;99.90
2897;DHT22;1458;49.728;9.228;2023-03-14T14:11:39;9.60;99.90
2897;DHT22;1458;49.728;9.228;2023-03-14T14:14:13;9.70;99.90
2897;DHT22;1458;49.728;9.228;2023-03-14T14:16:43;9.70;99.90
2897;DHT22;1458;49.728;9.228;2023-03-14T14:19:12;9.60;99.90
2897;DHT22;1458;49.728;9.228;2023-03-14T14:21:40;9.50;99.90
2897;DHT22;1458;49.728;9.228;2023-03-14T14:24:09;9.40;99.90
2897;DHT22;1458;49.728;9.228;2023-03-14T14:26:40;9.30;99.90
2897;DHT22;1458;49.728;9.228;2023-03-14T14:29:25;9.10;99.90
2897;DHT22;1458;49.728;9.228;2023-03-14T14:32:01;8.90;99.90
2897;DHT22;1458;49.728;9.228;2023-03-14T14:34:32;8.70;99.90
2897;DHT22;1458;49.728;9.228;2023-03-14T14:37:13;8.70;99.90
2897;DHT22;1458;49.728;9.228;2023-03-14T14:39:47;8.60;99.90
2897;DHT22;1458;49.728;9.228;2023-03-14T14:42:15;8.70;99.90
2897;DHT22;1458;49.728;9.228;2023-03-14T14:44:45;8.90;99.90
2897;DHT22;1458;49.728;9.228;2023-03-14T14:47:13;8.90;99.90
2897;DHT22;1458;49.728;9.228;2023-03-14T14:49:44;8.90;99.90
2897;DHT22;1458;49.728;9.228;2023-03-14T14:52:14;8.80;99.90
2897;DHT22;1458;49.728;9.228;2023-03-14T14:54:44;8.70;99.90
2897;DHT22;1458;49.728;9.228;2023-03-14T14:57:19;8.80;99.90
2897;DHT22;1458;49.728;9.228;2023-03-14T14:59:50;8.60;99.90
2897;DHT22;1458;49.728;9.228;2023-03-14T15:02:29;8.60;99.90
2897;DHT22;1458;49.728;9.228;2023-03-14T15:04:59;8.60;99.90
2897;DHT22;1458;49.728;9.228;2023-03-14T15:07:27;8.50;99.90
2897;DHT22;1458;49.728;9.228;2023-03-14T15:09:54;8.60;99.90
2897;DHT22;1458;49.728;9.228;2023-03-14T15:12:21;8.60;99.90
2897;DHT22;1458;49.728;9.228;2023-03-14T15:14:51;8.80;99.90
2897;DHT22;1458;49.728;9.228;2023-03-14T15:17:22;8.80;99.90
2897;DHT22;1458;49.728;9.228;2023-03-14T15:19:50;8.80;99.90
2897;DHT22;1458;49.728;9.228;2023-03-14T15:22:18;8.80;99.90
2897;DHT22;1458;49.728;9.228;2023-03-14T15:24:45;8.60;99.90
2897;DHT22;1458;49.728;9.228;2023-03-14T15:27:14;8.60;99.90
2897;DHT22;1458;49.728;9.228;2023-03-14T15:29:43;8.70;99.90
2897;DHT22;1458;49.728;9.228;2023-03-14T15:32:14;8.70;99.90
2897;DHT22;1458;49.728;9.228;2023-03-14T15:34:43;8.80;99.90
2897;DHT22;1458;49.728;9.228;2023-03-14T15:37:12;8.80;99.90
2897;DHT22;1458;49.728;9.228;2023-03-14T15:39:41;8.80;99.90
2897;DHT22;1458;49.728;9.228;2023-03-14T15:42:09;8.80;99.90
2897;DHT22;1458;49.728;9.228;2023-03-14T15:44:37;8.70;99.90
2897;DHT22;1458;49.728;9.228;2023-03-14T15:47:05;8.70;99.90
2897;DHT22;1458;49.728;9.228;2023-03-14T15:49:34;8.80;99.90
2897;DHT22;1458;49.728;9.228;2023-03-14T15:52:02;8.70;96.60
2897;DHT22;1458;49.728;9.228;2023-03-14T15:54:30;8.70;95.00
2897;DHT22;1458;49.728;9.228;2023-03-14T15:56:57;8.70;92.90
2897;DHT22;1458;49.728;9.228;2023-03-14T15:59:25;8.60;94.40
2897;DHT22;1458;49.728;9.228;2023-03-14T16:01:52;8.60;93.20
2897;DHT22;1458;49.728;9.228;2023-03-14T16:04:20;8.70;93.10
2897;DHT22;1458;49.728;9.228;2023-03-14T16:06:48;8.70;91.10
2897;DHT22;1458;49.728;9.228;2023-03-14T16:09:16;8.70;91.40
2897;DHT22;1458;49.728;9.228;2023-03-14T16:11:44;8.60;92.20
2897;DHT22;1458;49.728;9.228;2023-03-14T16:14:12;8.70;91.20
2897;DHT22;1458;49.728;9.228;2023-03-14T16:16:39;8.60;92.10
2897;DHT22;1458;49.728;9.228;2023-03-14T16:19:07;8.50;92.60
2897;DHT22;1458;49.728;9.228;2023-03-14T16:21:34;8.50;92.60
2897;DHT22;1458;49.728;9.228;2023-03-14T16:24:05;8.40;92.90
2897;DHT22;1458;49.728;9.228;2023-03-14T16:26:32;8.50;92.80
2897;DHT22;1458;49.728;9.228;2023-03-14T16:29:02;8.60;93.10
2897;DHT22;1458;49.728;9.228;2023-03-14T16:31:30;8.60;92.80
2897;DHT22;1458;49.728;9.228;2023-03-14T16:34:01;8.50;92.60
2897;DHT22;1458;49.728;9.228;2023-03-14T16:36:29;8.50;92.20
2897;DHT22;1458;49.728;9.228;2023-03-14T16:38:56;8.50;91.70
2897;DHT22;1458;49.728;9.228;2023-03-14T16:41:25;8.50;92.60
2897;DHT22;1458;49.728;9.228;2023-03-14T16:43:56;8.40;93.70